sensor_id;sensor_type;location;lat;lon;timestamp;temperature;humidity
2042;DHT22;1026;51.460;7.252;2022-12-20T00:00:42;6.40;94.00
2042;DHT22;1026;51.460;7.252;2022-12-20T00:03:07;6.40;94.10
2042;DHT22;1026;51.460;7.252;2022-12-20T00:05:37;6.40;93.90
2042;DHT22;1026;51.460;7.252;2022-12-20T00:08:03;6.40;94.10
2042;DHT22;1026;51.460;7.252;2022-12-20T00:10:29;6.50;94.10
2042;DHT22;1026;51.460;7.252;2022-12-20T00:12:54;6.50;94.10
2042;DHT22;1026;51.460;7.252;2022-12-20T00:15:20;6.50;94.00
2042;DHT22;1026;51.460;7.252;2022-12-20T00:17:46;6.50;93.80
2042;DHT22;1026;51.460;7.252;2022-12-20T00:20:11;6.50;93.70
2042;DHT22;1026;51.460;7.252;2022-12-20T00:22:37;6.50;93.90
2042;DHT22;1026;51.460;7.252;2022-12-20T00:25:04;6.50;94.00
2042;DHT22;1026;51.460;7.252;2022-12-20T00:27:30;6.40;93.90
2042;DHT22;1026;51.460;7.252;2022-12-20T00:29:55;6.50;94.00
2042;DHT22;1026;51.460;7.252;2022-12-20T00:32:21;6.50;93.90
2042;DHT22;1026;51.460;7.252;2022-12-20T00:34:46;6.60;94.00
2042;DHT22;1026;51.460;7.252;2022-12-20T00:37:12;6.60;94.10
2042;DHT22;1026;51.460;7.252;2022-12-20T00:39:38;6.60;94.10
2042;DHT22;1026;51.460;7.252;2022-12-20T00:42:17;6.60;93.80
2042;DHT22;1026;51.460;7.252;2022-12-20T00:44:42;6.60;94.00
2042;DHT22;1026;51.460;7.252;2022-12-20T00:47:08;6.60;93.90
2042;DHT22;1026;51.460;7.252;2022-12-20T00:49:40;6.60;93.90
2042;DHT22;1026;51.460;7.252;2022-12-20T00:52:06;6.60;94.10
2042;DHT22;1026;51.460;7.252;2022-12-20T00:54:32;6.70;93.80
2042;DHT22;1026;51.460;7.252;2022-12-20T00:56:58;6.70;93.90
2042;DHT22;1026;51.460;7.252;2022-12-20T00:59:24;6.70;93.80
2042;DHT22;1026;51.460;7.252;2022-12-20T01:01:50;6.70;93.90
2042;DHT22;1026;51.460;7.252;2022-12-20T01:04:15;6.70;94.00
2042;DHT22;1026;51.460;7.252;2022-12-20T01:06:41;6.70;93.80
2042;DHT22;1026;51.460;7.252;2022-12-20T01:09:07;6.70;93.90
2042;DHT22;1026;51.460;7.252;2022-12-20T01:11:35;6.60;93.80
2042;DHT22;1026;51.460;7.252;2022-12-20T01:14:04;6.70;94.30
2042;DHT22;1026;51.460;7.252;2022-12-20T01:16:35;6.80;94.00
2042;DHT22;1026;51.460;7.252;2022-12-20T01:19:01;6.80;93.90
2042;DHT22;1026;51.460;7.252;2022-12-20T01:21:27;6.70;93.80
2042;DHT22;1026;51.460;7.252;2022-12-20T01:23:53;6.80;93.90
2042;DHT22;1026;51.460;7.252;2022-12-20T01:26:22;6.80;93.90
2042;DHT22;1026;51.460;7.252;2022-12-20T01:28:50;6.80;94.00
2042;DHT22;1026;51.460;7.252;2022-12-20T01:31:17;6.80;94.10
2042;DHT22;1026;51.460;7.252;2022-12-20T01:33:45;6.80;94.20
2042;DHT22;1026;51.460;7.252;2022-12-20T01:36:13;6.80;93.80
2042;DHT22;1026;51.460;7.252;2022-12-20T01:38:40;6.80;93.80
2042;DHT22;1026;51.460;7.252;2022-12-20T01:41:05;6.80;93.80
2042;DHT22;1026;51.460;7.252;2022-12-20T01:46:12;6.80;94.10
2042;DHT22;1026;51.460;7.252;2022-12-20T01:48:38;6.90;93.90
2042;DHT22;1026;51.460;7.252;2022-12-20T01:51:05;6.70;94.10
2042;DHT22;1026;51.460;7.252;2022-12-20T01:53:31;6.90;93.90
2042;DHT22;1026;51.460;7.252;2022-12-20T01:56:00;6.90;94.00
2042;DHT22;1026;51.460;7.252;2022-12-20T01:58:27;6.90;93.80
2042;DHT22;1026;51.460;7.252;2022-12-20T02:00:53;6.90;93.80
2042;DHT22;1026;51.460;7.252;2022-12-20T02:03:19;6.90;93.70
2042;DHT22;1026;51.460;7.252;2022-12-20T02:05:45;6.90;93.70
2042;DHT22;1026;51.460;7.252;2022-12-20T02:08:13;6.90;93.90
2042;DHT22;1026;51.460;7.252;2022-12-20T02:15:57;7.00;93.90
2042;DHT22;1026;51.460;7.252;2022-12-20T02:18:30;7.00;94.00
2042;DHT22;1026;51.460;7.252;2022-12-20T02:21:05;7.00;94.00
2042;DHT22;1026;51.460;7.252;2022-12-20T02:29:34;6.90;93.80
2042;DHT22;1026;51.460;7.252;2022-12-20T02:32:16;7.00;94.00
2042;DHT22;1026;51.460;7.252;2022-12-20T02:34:43;7.00;94.00
2042;DHT22;1026;51.460;7.252;2022-12-20T02:37:09;7.00;93.90
2042;DHT22;1026;51.460;7.252;2022-12-20T02:39:38;7.00;94.30
2042;DHT22;1026;51.460;7.252;2022-12-20T02:42:08;7.00;94.20
2042;DHT22;1026;51.460;7.252;2022-12-20T02:44:37;7.00;93.90
2042;DHT22;1026;51.460;7.252;2022-12-20T02:47:26;7.00;93.90
2042;DHT22;1026;51.460;7.252;2022-12-20T02:49:54;7.00;94.10
2042;DHT22;1026;51.460;7.252;2022-12-20T02:52:23;7.00;94.20
2042;DHT22;1026;51.460;7.252;2022-12-20T02:54:52;7.00;94.20
2042;DHT22;1026;51.460;7.252;2022-12-20T02:57:25;6.90;94.20
2042;DHT22;1026;51.460;7.252;2022-12-20T03:02:29;7.10;93.80
2042;DHT22;1026;51.460;7.252;2022-12-20T03:05:15;7.00;93.80
2042;DHT22;1026;51.460;7.252;2022-12-20T03:07:41;7.10;93.90
2042;DHT22;1026;51.460;7.252;2022-12-20T03:10:08;7.00;93.90
2042;DHT22;1026;51.460;7.252;2022-12-20T03:12:33;7.10;93.80
2042;DHT22;1026;51.460;7.252;2022-12-20T03:14:59;7.10;93.90
2042;DHT22;1026;51.460;7.252;2022-12-20T03:17:25;7.10;93.90
2042;DHT22;1026;51.460;7.252;2022-12-20T03:19:57;7.10;93.90
2042;DHT22;1026;51.460;7.252;2022-12-20T03:22:22;7.10;93.90
2042;DHT22;1026;51.460;7.252;2022-12-20T03:24:49;7.10;94.10
2042;DHT22;1026;51.460;7.252;2022-12-20T03:27:14;7.10;94.10
2042;DHT22;1026;51.460;7.252;2022-12-20T03:29:41;7.10;94.10
2042;DHT22;1026;51.460;7.252;2022-12-20T03:32:06;7.10;94.10
2042;DHT22;1026;51.460;7.252;2022-12-20T03:34:32;7.10;94.00
2042;DHT22;1026;51.460;7.252;2022-12-20T03:36:58;7.10;94.00
2042;DHT22;1026;51.460;7.252;2022-12-20T03:39:23;7.10;94.00
2042;DHT22;1026;51.460;7.252;2022-12-20T03:41:49;7.10;94.00
2042;DHT22;1026;51.460;7.252;2022-12-20T03:44:15;7.10;94.00
2042;DHT22;1026;51.460;7.252;2022-12-20T03:46:40;7.10;94.30
2042;DHT22;1026;51.460;7.252;2022-12-20T03:49:06;7.10;94.20
2042;DHT22;1026;51.460;7.252;2022-12-20T03:51:31;7.20;94.20
2042;DHT22;1026;51.460;7.252;2022-12-20T03:53:57;7.20;94.10
2042;DHT22;1026;51.460;7.252;2022-12-20T03:56:23;7.10;93.90
2042;DHT22;1026;51.460;7.252;2022-12-20T03:58:48;7.20;94.10
2042;DHT22;1026;51.460;7.252;2022-12-20T04:01:17;7.20;94.10
2042;DHT22;1026;51.460;7.252;2022-12-20T04:03:43;7.20;94.20
2042;DHT22;1026;51.460;7.252;2022-12-20T04:06:08;7.20;94.00
2042;DHT22;1026;51.460;7.252;2022-12-20T04:08:34;7.20;94.00
2042;DHT22;1026;51.460;7.252;2022-12-20T04:11:00;7.20;94.00
2042;DHT22;1026;51.460;7.252;2022-12-20T04:13:42;7.20;94.10
2042;DHT22;1026;51.460;7.252;2022-12-20T04:16:10;7.20;93.90
2042;DHT22;1026;51.460;7.252;2022-12-20T04:18:36;7.20;94.00
2042;DHT22;1026;51.460;7.252;2022-12-20T04:21:03;7.20;94.10
2042;DHT22;1026;51.460;7.252;2022-12-20T04:23:28;7.20;94.40
2042;DHT22;1026;51.460;7.252;2022-12-20T04:25:54;7.20;94.50
2042;DHT22;1026;51.460;7.252;2022-12-20T04:28:20;7.20;94.60
2042;DHT22;1026;51.460;7.252;2022-12-20T04:30:45;7.20;94.40
2042;DHT22;1026;51.460;7.252;2022-12-20T04:33:11;7.20;94.30
2042;DHT22;1026;51.460;7.252;2022-12-20T04:35:37;7.10;94.30
2042;DHT22;1026;51.460;7.252;2022-12-20T04:38:03;7.20;94.30
2042;DHT22;1026;51.460;7.252;2022-12-20T04:40:28;7.20;94.40
2042;DHT22;1026;51.460;7.252;2022-12-20T04:42:55;7.20;94.30
2042;DHT22;1026;51.460;7.252;2022-12-20T04:45:21;7.20;94.10
2042;DHT22;1026;51.460;7.252;2022-12-20T04:47:46;7.20;94.30
2042;DHT22;1026;51.460;7.252;2022-12-20T04:50:12;7.20;94.40
2042;DHT22;1026;51.460;7.252;2022-12-20T04:52:37;7.20;94.50
2042;DHT22;1026;51.460;7.252;2022-12-20T04:55:18;7.20;94.40
2042;DHT22;1026;51.460;7.252;2022-12-20T04:57:44;7.20;94.00
2042;DHT22;1026;51.460;7.252;2022-12-20T05:00:10;7.10;94.20
2042;DHT22;1026;51.460;7.252;2022-12-20T05:02:36;7.20;94.60
2042;DHT22;1026;51.460;7.252;2022-12-20T05:05:02;7.30;94.50
2042;DHT22;1026;51.460;7.252;2022-12-20T05:07:27;7.30;94.40
2042;DHT22;1026;51.460;7.252;2022-12-20T05:09:53;7.30;94.40
2042;DHT22;1026;51.460;7.252;2022-12-20T05:12:19;7.30;94.50
2042;DHT22;1026;51.460;7.252;2022-12-20T05:14:44;7.20;94.30
2042;DHT22;1026;51.460;7.252;2022-12-20T05:17:10;7.30;94.50
2042;DHT22;1026;51.460;7.252;2022-12-20T05:19:35;7.30;94.30
2042;DHT22;1026;51.460;7.252;2022-12-20T05:22:01;7.30;94.30
2042;DHT22;1026;51.460;7.252;2022-12-20T05:24:42;7.30;94.50
2042;DHT22;1026;51.460;7.252;2022-12-20T05:27:23;7.30;94.40
2042;DHT22;1026;51.460;7.252;2022-12-20T05:29:49;7.30;94.40
2042;DHT22;1026;51.460;7.252;2022-12-20T05:32:14;7.30;94.40
2042;DHT22;1026;51.460;7.252;2022-12-20T05:34:40;7.30;94.70
2042;DHT22;1026;51.460;7.252;2022-12-20T05:37:12;7.30;94.70
2042;DHT22;1026;51.460;7.252;2022-12-20T05:39:37;7.30;94.30
2042;DHT22;1026;51.460;7.252;2022-12-20T05:42:03;7.30;94.30
2042;DHT22;1026;51.460;7.252;2022-12-20T05:44:29;7.30;94.40
2042;DHT22;1026;51.460;7.252;2022-12-20T05:46:54;7.30;94.30
2042;DHT22;1026;51.460;7.252;2022-12-20T05:49:20;7.30;94.30
2042;DHT22;1026;51.460;7.252;2022-12-20T05:51:46;7.30;94.40
2042;DHT22;1026;51.460;7.252;2022-12-20T05:54:11;7.30;94.40
2042;DHT22;1026;51.460;7.252;2022-12-20T05:56:37;7.30;94.30
2042;DHT22;1026;51.460;7.252;2022-12-20T05:59:02;7.30;94.50
2042;DHT22;1026;51.460;7.252;2022-12-20T06:01:28;7.30;94.30
2042;DHT22;1026;51.460;7.252;2022-12-20T06:03:54;7.30;94.30
2042;DHT22;1026;51.460;7.252;2022-12-20T06:06:19;7.30;94.40
2042;DHT22;1026;51.460;7.252;2022-12-20T06:08:45;7.30;94.30
2042;DHT22;1026;51.460;7.252;2022-12-20T06:11:10;7.30;94.30
2042;DHT22;1026;51.460;7.252;2022-12-20T06:13:36;7.40;94.40
2042;DHT22;1026;51.460;7.252;2022-12-20T06:16:02;7.30;94.50
2042;DHT22;1026;51.460;7.252;2022-12-20T06:18:28;7.30;94.20
2042;DHT22;1026;51.460;7.252;2022-12-20T06:20:53;7.40;94.40
2042;DHT22;1026;51.460;7.252;2022-12-20T06:23:19;7.30;94.40
2042;DHT22;1026;51.460;7.252;2022-12-20T06:25:46;7.40;94.60
2042;DHT22;1026;51.460;7.252;2022-12-20T06:28:13;7.40;94.40
2042;DHT22;1026;51.460;7.252;2022-12-20T06:30:40;7.30;94.30
2042;DHT22;1026;51.460;7.252;2022-12-20T06:33:06;7.40;94.70
2042;DHT22;1026;51.460;7.252;2022-12-20T06:35:32;7.30;94.40
2042;DHT22;1026;51.460;7.252;2022-12-20T06:37:57;7.40;94.40
2042;DHT22;1026;51.460;7.252;2022-12-20T06:40:23;7.30;94.30
2042;DHT22;1026;51.460;7.252;2022-12-20T06:42:48;7.40;94.40
2042;DHT22;1026;51.460;7.252;2022-12-20T06:45:15;7.40;94.50
2042;DHT22;1026;51.460;7.252;2022-12-20T06:47:40;7.40;94.50
2042;DHT22;1026;51.460;7.252;2022-12-20T06:50:07;7.40;94.50
2042;DHT22;1026;51.460;7.252;2022-12-20T06:52:33;7.40;94.20
2042;DHT22;1026;51.460;7.252;2022-12-20T06:54:58;7.30;94.30
2042;DHT22;1026;51.460;7.252;2022-12-20T06:57:24;7.40;94.30
2042;DHT22;1026;51.460;7.252;2022-12-20T06:59:50;7.40;94.20
2042;DHT22;1026;51.460;7.252;2022-12-20T07:02:15;7.40;94.30
2042;DHT22;1026;51.460;7.252;2022-12-20T07:04:41;7.30;94.30
2042;DHT22;1026;51.460;7.252;2022-12-20T07:07:07;7.40;94.30
2042;DHT22;1026;51.460;7.252;2022-12-20T07:09:33;7.40;94.60
2042;DHT22;1026;51.460;7.252;2022-12-20T07:11:58;7.40;94.50
2042;DHT22;1026;51.460;7.252;2022-12-20T07:14:24;7.30;95.00
2042;DHT22;1026;51.460;7.252;2022-12-20T07:16:50;7.40;94.80
2042;DHT22;1026;51.460;7.252;2022-12-20T07:19:16;7.50;94.40
2042;DHT22;1026;51.460;7.252;2022-12-20T07:21:42;7.40;94.20
2042;DHT22;1026;51.460;7.252;2022-12-20T07:24:08;7.40;94.40
2042;DHT22;1026;51.460;7.252;2022-12-20T07:26:34;7.50;94.40
2042;DHT22;1026;51.460;7.252;2022-12-20T07:29:00;7.40;94.40
2042;DHT22;1026;51.460;7.252;2022-12-20T07:31:26;7.40;94.10
2042;DHT22;1026;51.460;7.252;2022-12-20T07:33:51;7.50;94.50
2042;DHT22;1026;51.460;7.252;2022-12-20T07:36:17;7.40;94.20
2042;DHT22;1026;51.460;7.252;2022-12-20T07:38:43;7.50;94.40
2042;DHT22;1026;51.460;7.252;2022-12-20T07:41:11;7.40;94.30
2042;DHT22;1026;51.460;7.252;2022-12-20T07:43:38;7.50;94.30
2042;DHT22;1026;51.460;7.252;2022-12-20T07:46:05;7.50;94.20
2042;DHT22;1026;51.460;7.252;2022-12-20T07:48:31;7.40;94.30
2042;DHT22;1026;51.460;7.252;2022-12-20T07:51:01;7.40;94.40
2042;DHT22;1026;51.460;7.252;2022-12-20T07:53:29;7.50;94.40
2042;DHT22;1026;51.460;7.252;2022-12-20T07:55:56;7.50;94.00
2042;DHT22;1026;51.460;7.252;2022-12-20T07:58:23;7.50;94.20
2042;DHT22;1026;51.460;7.252;2022-12-20T08:00:49;7.50;94.20
2042;DHT22;1026;51.460;7.252;2022-12-20T08:03:21;7.50;94.30
2042;DHT22;1026;51.460;7.252;2022-12-20T08:05:50;7.50;94.60
2042;DHT22;1026;51.460;7.252;2022-12-20T08:08:17;7.40;94.50
2042;DHT22;1026;51.460;7.252;2022-12-20T08:10:44;7.50;94.40
2042;DHT22;1026;51.460;7.252;2022-12-20T08:13:11;7.50;94.30
2042;DHT22;1026;51.460;7.252;2022-12-20T08:15:37;7.50;94.60
2042;DHT22;1026;51.460;7.252;2022-12-20T08:18:03;7.50;94.60
2042;DHT22;1026;51.460;7.252;2022-12-20T08:20:30;7.50;94.50
2042;DHT22;1026;51.460;7.252;2022-12-20T08:22:56;7.50;94.40
2042;DHT22;1026;51.460;7.252;2022-12-20T08:25:23;7.50;94.40
2042;DHT22;1026;51.460;7.252;2022-12-20T08:27:48;7.50;94.50
2042;DHT22;1026;51.460;7.252;2022-12-20T08:30:14;7.50;94.50
2042;DHT22;1026;51.460;7.252;2022-12-20T08:32:40;7.50;94.30
2042;DHT22;1026;51.460;7.252;2022-12-20T08:35:06;7.40;94.30
2042;DHT22;1026;51.460;7.252;2022-12-20T08:37:32;7.50;94.00
2042;DHT22;1026;51.460;7.252;2022-12-20T08:39:58;7.50;94.30
2042;DHT22;1026;51.460;7.252;2022-12-20T08:42:26;7.50;94.30
2042;DHT22;1026;51.460;7.252;2022-12-20T08:44:51;7.50;94.40
2042;DHT22;1026;51.460;7.252;2022-12-20T08:47:17;7.50;94.40
2042;DHT22;1026;51.460;7.252;2022-12-20T08:49:43;7.50;94.40
2042;DHT22;1026;51.460;7.252;2022-12-20T08:52:08;7.50;94.40
2042;DHT22;1026;51.460;7.252;2022-12-20T08:54:34;7.50;94.30
2042;DHT22;1026;51.460;7.252;2022-12-20T08:56:59;7.60;94.40
2042;DHT22;1026;51.460;7.252;2022-12-20T08:59:25;7.60;94.50
2042;DHT22;1026;51.460;7.252;2022-12-20T09:01:51;7.60;94.30
2042;DHT22;1026;51.460;7.252;2022-12-20T09:04:19;7.60;94.40
2042;DHT22;1026;51.460;7.252;2022-12-20T09:06:45;7.60;94.60
2042;DHT22;1026;51.460;7.252;2022-12-20T09:09:11;7.60;94.70
2042;DHT22;1026;51.460;7.252;2022-12-20T09:11:36;7.60;94.60
2042;DHT22;1026;51.460;7.252;2022-12-20T09:14:02;7.60;94.50
2042;DHT22;1026;51.460;7.252;2022-12-20T09:16:30;7.60;94.50
2042;DHT22;1026;51.460;7.252;2022-12-20T09:18:57;7.60;94.70
2042;DHT22;1026;51.460;7.252;2022-12-20T09:21:23;7.60;94.70
2042;DHT22;1026;51.460;7.252;2022-12-20T09:23:50;7.50;94.50
2042;DHT22;1026;51.460;7.252;2022-12-20T09:26:17;7.60;94.40
2042;DHT22;1026;51.460;7.252;2022-12-20T09:28:44;7.70;94.40
2042;DHT22;1026;51.460;7.252;2022-12-20T09:31:13;7.70;94.70
2042;DHT22;1026;51.460;7.252;2022-12-20T09:33:40;7.70;94.60
2042;DHT22;1026;51.460;7.252;2022-12-20T09:36:09;7.70;94.60
2042;DHT22;1026;51.460;7.252;2022-12-20T09:38:35;7.70;94.40
2042;DHT22;1026;51.460;7.252;2022-12-20T09:41:04;7.70;94.60
2042;DHT22;1026;51.460;7.252;2022-12-20T09:43:31;7.70;94.40
2042;DHT22;1026;51.460;7.252;2022-12-20T09:46:02;7.70;94.60
2042;DHT22;1026;51.460;7.252;2022-12-20T09:48:31;7.70;94.40
2042;DHT22;1026;51.460;7.252;2022-12-20T09:56:40;7.70;94.40
2042;DHT22;1026;51.460;7.252;2022-12-20T09:59:18;7.70;94.40
2042;DHT22;1026;51.460;7.252;2022-12-20T10:01:47;7.70;94.50
2042;DHT22;1026;51.460;7.252;2022-12-20T10:04:21;7.80;94.40
2042;DHT22;1026;51.460;7.252;2022-12-20T10:07:18;7.80;94.50
2042;DHT22;1026;51.460;7.252;2022-12-20T10:12:50;7.80;94.60
2042;DHT22;1026;51.460;7.252;2022-12-20T10:25:53;7.80;94.70
2042;DHT22;1026;51.460;7.252;2022-12-20T10:28:26;7.70;94.40
2042;DHT22;1026;51.460;7.252;2022-12-20T10:30:52;7.80;94.50
2042;DHT22;1026;51.460;7.252;2022-12-20T10:33:22;7.90;94.40
2042;DHT22;1026;51.460;7.252;2022-12-20T10:35:48;7.90;94.40
2042;DHT22;1026;51.460;7.252;2022-12-20T10:38:15;7.90;94.50
2042;DHT22;1026;51.460;7.252;2022-12-20T10:43:26;7.90;94.60
2042;DHT22;1026;51.460;7.252;2022-12-20T10:46:04;7.90;94.40
2042;DHT22;1026;51.460;7.252;2022-12-20T10:48:32;7.90;94.70
2042;DHT22;1026;51.460;7.252;2022-12-20T10:51:02;7.90;94.50
2042;DHT22;1026;51.460;7.252;2022-12-20T10:53:30;7.80;94.50
2042;DHT22;1026;51.460;7.252;2022-12-20T10:58:37;8.00;94.80
2042;DHT22;1026;51.460;7.252;2022-12-20T11:01:09;8.00;94.40
2042;DHT22;1026;51.460;7.252;2022-12-20T11:06:44;7.90;94.70
2042;DHT22;1026;51.460;7.252;2022-12-20T11:09:27;8.00;94.70
2042;DHT22;1026;51.460;7.252;2022-12-20T11:14:29;8.00;94.70
2042;DHT22;1026;51.460;7.252;2022-12-20T11:16:56;8.10;94.70
2042;DHT22;1026;51.460;7.252;2022-12-20T11:22:28;8.10;94.40
2042;DHT22;1026;51.460;7.252;2022-12-20T11:25:35;8.00;94.50
2042;DHT22;1026;51.460;7.252;2022-12-20T11:30:55;8.20;94.60
2042;DHT22;1026;51.460;7.252;2022-12-20T11:33:45;8.10;94.60
2042;DHT22;1026;51.460;7.252;2022-12-20T11:39:12;8.10;94.80
2042;DHT22;1026;51.460;7.252;2022-12-20T11:41:49;8.20;94.40
2042;DHT22;1026;51.460;7.252;2022-12-20T11:49:53;8.10;94.80
2042;DHT22;1026;51.460;7.252;2022-12-20T11:52:33;8.30;94.50
2042;DHT22;1026;51.460;7.252;2022-12-20T11:55:14;8.30;94.30
2042;DHT22;1026;51.460;7.252;2022-12-20T12:00:33;8.30;94.60
2042;DHT22;1026;51.460;7.252;2022-12-20T12:03:11;8.30;94.50
2042;DHT22;1026;51.460;7.252;2022-12-20T12:05:54;8.30;94.60
2042;DHT22;1026;51.460;7.252;2022-12-20T12:08:26;8.40;94.30
2042;DHT22;1026;51.460;7.252;2022-12-20T12:11:17;8.30;94.40
2042;DHT22;1026;51.460;7.252;2022-12-20T12:13:43;8.40;94.40
2042;DHT22;1026;51.460;7.252;2022-12-20T12:16:26;8.40;94.40
2042;DHT22;1026;51.460;7.252;2022-12-20T12:18:53;8.40;94.50
2042;DHT22;1026;51.460;7.252;2022-12-20T12:21:24;8.40;94.40
2042;DHT22;1026;51.460;7.252;2022-12-20T12:26:34;8.50;94.20
2042;DHT22;1026;51.460;7.252;2022-12-20T12:29:04;8.50;94.50
2042;DHT22;1026;51.460;7.252;2022-12-20T12:31:43;8.50;94.50
2042;DHT22;1026;51.460;7.252;2022-12-20T12:34:29;8.50;94.50
2042;DHT22;1026;51.460;7.252;2022-12-20T12:37:23;8.50;94.20
2042;DHT22;1026;51.460;7.252;2022-12-20T12:40:11;8.50;94.20
2042;DHT22;1026;51.460;7.252;2022-12-20T12:45:34;8.40;94.20
2042;DHT22;1026;51.460;7.252;2022-12-20T12:48:12;8.60;94.30
2042;DHT22;1026;51.460;7.252;2022-12-20T12:50:45;8.60;94.50
2042;DHT22;1026;51.460;7.252;2022-12-20T12:55:56;8.60;94.60
2042;DHT22;1026;51.460;7.252;2022-12-20T13:11:39;8.70;94.40
2042;DHT22;1026;51.460;7.252;2022-12-20T13:16:53;8.60;94.30
2042;DHT22;1026;51.460;7.252;2022-12-20T13:19:38;8.70;94.10
2042;DHT22;1026;51.460;7.252;2022-12-20T13:24:46;8.70;94.20
2042;DHT22;1026;51.460;7.252;2022-12-20T13:27:31;8.70;94.50
2042;DHT22;1026;51.460;7.252;2022-12-20T13:35:29;8.70;94.50
2042;DHT22;1026;51.460;7.252;2022-12-20T13:40:47;8.70;94.70
2042;DHT22;1026;51.460;7.252;2022-12-20T13:43:34;8.60;94.40
2042;DHT22;1026;51.460;7.252;2022-12-20T13:46:17;8.80;94.80
2042;DHT22;1026;51.460;7.252;2022-12-20T13:48:53;8.70;94.60
2042;DHT22;1026;51.460;7.252;2022-12-20T13:51:23;8.80;94.90
2042;DHT22;1026;51.460;7.252;2022-12-20T13:53:59;8.70;95.00
2042;DHT22;1026;51.460;7.252;2022-12-20T13:58:53;8.70;94.70
2042;DHT22;1026;51.460;7.252;2022-12-20T14:01:22;8.70;94.90
2042;DHT22;1026;51.460;7.252;2022-12-20T14:03:48;8.80;95.20
2042;DHT22;1026;51.460;7.252;2022-12-20T14:06:17;8.80;95.20
2042;DHT22;1026;51.460;7.252;2022-12-20T14:08:46;8.80;94.90
2042;DHT22;1026;51.460;7.252;2022-12-20T14:11:16;8.80;94.80
2042;DHT22;1026;51.460;7.252;2022-12-20T14:13:51;8.80;95.10
2042;DHT22;1026;51.460;7.252;2022-12-20T14:16:19;8.80;95.40
2042;DHT22;1026;51.460;7.252;2022-12-20T14:18:52;8.80;95.10
2042;DHT22;1026;51.460;7.252;2022-12-20T14:21:25;8.80;95.10
2042;DHT22;1026;51.460;7.252;2022-12-20T14:23:53;8.80;95.30
2042;DHT22;1026;51.460;7.252;2022-12-20T14:26:25;8.80;95.20
2042;DHT22;1026;51.460;7.252;2022-12-20T14:28:54;8.80;95.00
2042;DHT22;1026;51.460;7.252;2022-12-20T14:31:27;8.70;95.00
2042;DHT22;1026;51.460;7.252;2022-12-20T14:36:38;8.80;95.30
2042;DHT22;1026;51.460;7.252;2022-12-20T14:41:45;8.70;95.00
2042;DHT22;1026;51.460;7.252;2022-12-20T14:44:15;8.80;95.20
2042;DHT22;1026;51.460;7.252;2022-12-20T14:46:48;8.70;95.40
2042;DHT22;1026;51.460;7.252;2022-12-20T14:49:24;8.90;95.30
2042;DHT22;1026;51.460;7.252;2022-12-20T14:52:02;8.90;95.40
2042;DHT22;1026;51.460;7.252;2022-12-20T14:54:29;8.80;95.30
2042;DHT22;1026;51.460;7.252;2022-12-20T14:56:55;8.90;95.30
2042;DHT22;1026;51.460;7.252;2022-12-20T14:59:25;8.80;95.40
2042;DHT22;1026;51.460;7.252;2022-12-20T15:01:52;8.90;95.20
2042;DHT22;1026;51.460;7.252;2022-12-20T15:06:47;8.90;95.30
2042;DHT22;1026;51.460;7.252;2022-12-20T15:09:14;8.80;95.40
2042;DHT22;1026;51.460;7.252;2022-12-20T15:11:41;8.90;95.40
2042;DHT22;1026;51.460;7.252;2022-12-20T15:16:48;8.80;95.50
2042;DHT22;1026;51.460;7.252;2022-12-20T15:19:14;8.80;95.30
2042;DHT22;1026;51.460;7.252;2022-12-20T15:21:41;8.90;95.70
2042;DHT22;1026;51.460;7.252;2022-12-20T15:24:12;8.80;95.80
2042;DHT22;1026;51.460;7.252;2022-12-20T15:26:38;8.80;95.50
2042;DHT22;1026;51.460;7.252;2022-12-20T15:29:04;8.90;95.50
2042;DHT22;1026;51.460;7.252;2022-12-20T15:31:32;8.90;95.60
2042;DHT22;1026;51.460;7.252;2022-12-20T15:34:00;8.80;95.50
2042;DHT22;1026;51.460;7.252;2022-12-20T15:36:28;8.80;95.50
2042;DHT22;1026;51.460;7.252;2022-12-20T15:38:55;8.90;95.50
2042;DHT22;1026;51.460;7.252;2022-12-20T15:41:24;8.90;95.40
2042;DHT22;1026;51.460;7.252;2022-12-20T15:43:53;8.90;95.30
2042;DHT22;1026;51.460;7.252;2022-12-20T15:46:19;8.90;95.40
2042;DHT22;1026;51.460;7.252;2022-12-20T15:48:45;8.90;95.20
2042;DHT22;1026;51.460;7.252;2022-12-20T15:51:16;8.90;95.40
2042;DHT22;1026;51.460;7.252;2022-12-20T15:53:42;8.80;95.40
2042;DHT22;1026;51.460;7.252;2022-12-20T15:56:16;8.80;95.40
2042;DHT22;1026;51.460;7.252;2022-12-20T15:58:42;8.90;95.40
2042;DHT22;1026;51.460;7.252;2022-12-20T16:01:11;8.80;95.30
2042;DHT22;1026;51.460;7.252;2022-12-20T16:03:38;8.90;95.10
2042;DHT22;1026;51.460;7.252;2022-12-20T16:06:04;8.80;95.40
2042;DHT22;1026;51.460;7.252;2022-12-20T16:08:30;8.90;95.30
2042;DHT22;1026;51.460;7.252;2022-12-20T16:10:55;8.90;94.80
2042;DHT22;1026;51.460;7.252;2022-12-20T16:13:23;8.90;94.70
2042;DHT22;1026;51.460;7.252;2022-12-20T16:15:55;8.90;94.90
2042;DHT22;1026;51.460;7.252;2022-12-20T16:18:21;8.90;95.10
2042;DHT22;1026;51.460;7.252;2022-12-20T16:20:47;8.90;94.80
2042;DHT22;1026;51.460;7.252;2022-12-20T16:23:16;8.90;94.70
2042;DHT22;1026;51.460;7.252;2022-12-20T16:25:43;8.90;94.60
2042;DHT22;1026;51.460;7.252;2022-12-20T16:28:09;8.90;94.20
2042;DHT22;1026;51.460;7.252;2022-12-20T16:30:35;8.80;94.70
2042;DHT22;1026;51.460;7.252;2022-12-20T16:33:01;8.90;94.60
2042;DHT22;1026;51.460;7.252;2022-12-20T16:35:31;8.90;94.60
2042;DHT22;1026;51.460;7.252;2022-12-20T16:37:58;8.90;94.10
2042;DHT22;1026;51.460;7.252;2022-12-20T16:40:26;8.90;94.70
2042;DHT22;1026;51.460;7.252;2022-12-20T16:42:53;8.90;94.90
2042;DHT22;1026;51.460;7.252;2022-12-20T16:45:22;8.90;94.50
2042;DHT22;1026;51.460;7.252;2022-12-20T16:47:48;8.90;94.20
2042;DHT22;1026;51.460;7.252;2022-12-20T16:50:15;8.90;94.50
2042;DHT22;1026;51.460;7.252;2022-12-20T16:52:41;8.90;94.50
2042;DHT22;1026;51.460;7.252;2022-12-20T16:55:13;8.90;94.20
2042;DHT22;1026;51.460;7.252;2022-12-20T16:57:39;8.80;94.20
2042;DHT22;1026;51.460;7.252;2022-12-20T17:00:06;8.90;94.20
2042;DHT22;1026;51.460;7.252;2022-12-20T17:02:33;8.90;93.90
2042;DHT22;1026;51.460;7.252;2022-12-20T17:04:59;8.90;93.90
2042;DHT22;1026;51.460;7.252;2022-12-20T17:07:25;8.90;94.40
2042;DHT22;1026;51.460;7.252;2022-12-20T17:09:51;8.80;94.00
2042;DHT22;1026;51.460;7.252;2022-12-20T17:12:19;8.90;94.10
2042;DHT22;1026;51.460;7.252;2022-12-20T17:14:45;8.90;93.90
2042;DHT22;1026;51.460;7.252;2022-12-20T17:17:12;8.70;93.60
2042;DHT22;1026;51.460;7.252;2022-12-20T17:19:37;8.90;93.80
2042;DHT22;1026;51.460;7.252;2022-12-20T17:22:04;8.80;93.80
2042;DHT22;1026;51.460;7.252;2022-12-20T17:24:30;8.80;93.80
2042;DHT22;1026;51.460;7.252;2022-12-20T17:26:55;8.90;93.50
2042;DHT22;1026;51.460;7.252;2022-12-20T17:29:21;8.90;93.80
2042;DHT22;1026;51.460;7.252;2022-12-20T17:31:47;8.90;93.50
2042;DHT22;1026;51.460;7.252;2022-12-20T17:34:28;8.80;93.60
2042;DHT22;1026;51.460;7.252;2022-12-20T17:36:56;8.90;93.80
2042;DHT22;1026;51.460;7.252;2022-12-20T17:39:23;8.90;93.50
2042;DHT22;1026;51.460;7.252;2022-12-20T17:41:49;8.90;93.20
2042;DHT22;1026;51.460;7.252;2022-12-20T17:44:19;8.90;93.40
2042;DHT22;1026;51.460;7.252;2022-12-20T17:46:46;8.80;93.30
2042;DHT22;1026;51.460;7.252;2022-12-20T17:49:12;8.90;93.40
2042;DHT22;1026;51.460;7.252;2022-12-20T17:51:38;8.90;93.60
2042;DHT22;1026;51.460;7.252;2022-12-20T17:54:04;8.80;93.20
2042;DHT22;1026;51.460;7.252;2022-12-20T17:56:33;8.80;93.50
2042;DHT22;1026;51.460;7.252;2022-12-20T17:59:00;8.90;93.30
2042;DHT22;1026;51.460;7.252;2022-12-20T18:01:28;8.90;93.50
2042;DHT22;1026;51.460;7.252;2022-12-20T18:03:56;8.90;93.80
2042;DHT22;1026;51.460;7.252;2022-12-20T18:06:23;8.90;93.20
2042;DHT22;1026;51.460;7.252;2022-12-20T18:08:50;8.90;93.30
2042;DHT22;1026;51.460;7.252;2022-12-20T18:11:17;8.90;93.50
2042;DHT22;1026;51.460;7.252;2022-12-20T18:13:45;8.90;93.60
2042;DHT22;1026;51.460;7.252;2022-12-20T18:16:12;8.90;93.50